Time;durP1;ratioP1;P1;durP2;ratioP2;P2;SDS_P1;SDS_P2;PMS_P1;PMS_P2;Temp;Humidity;BMP_temperature;BMP_pressure;BME280_temperature;BME280_humidity;BME280_pressure;Samples;Min_cycle;Max_cycle;Signal;HPM_P1;HPM_P2
2024/02/15 05:42:24;;;;;;;;;;;;;;;5.70;100.00;100522.95;107847;1276;22938;-46
2024/02/15 05:44:51;;;;;;;;;;;;;;;5.73;100.00;100524.56;109885;1275;23064;-47
2024/02/15 05:47:20;;;;;;;;;;;;;;;5.76;100.00;100529.49;108600;1275;22535;-54
2024/02/15 05:49:57;;;;;;;;;;;;;;;5.81;100.00;100536.36;108501;1275;22614;-46
2024/02/15 05:52:25;;;;;;;;;;;;;;;5.85;100.00;100533.16;109674;1278;22493;-49
2024/02/15 05:54:54;;;;;;;;;;;;;;;5.88;100.00;100532.89;109694;1263;22496;-46
2024/02/15 05:57:22;;;;;;;;;;;;;;;5.91;100.00;100534.70;109774;1268;25386;-56
2024/02/15 05:59:49;;;;;;;;;;;;;;;5.96;100.00;100539.83;109119;1274;22538;-56
2024/02/15 06:02:17;;;;;;;;;;;;;;;6.01;100.00;100546.35;109765;1259;23841;-48
2024/02/15 06:04:44;;;;;;;;;;;;;;;6.04;100.00;100546.61;107702;1278;22482;-49
2024/02/15 06:07:12;;;;;;;;;;;;;;;6.08;100.00;100543.21;109773;1273;25408;-56
2024/02/15 06:09:40;;;;;;;;;;;;;;;6.10;100.00;100547.09;109927;1264;23156;-55
2024/02/15 06:12:07;;;;;;;;;;;;;;;6.14;100.00;100543.88;109696;1275;22488;-57
2024/02/15 06:14:36;;;;;;;;;;;;;;;6.18;100.00;100550.20;109910;1272;23334;-46
2024/02/15 06:17:04;;;;;;;;;;;;;;;6.21;100.00;100549.93;109550;1264;22469;-55
2024/02/15 06:19:32;;;;;;;;;;;;;;;6.24;100.00;100553.45;108939;1272;22543;-49
2024/02/15 06:22:04;;;;;;;;;;;;;;;6.27;100.00;100556.11;108950;1273;22560;-48
2024/02/15 06:24:34;;;;;;;;;;;;;;;6.29;100.00;100561.02;109446;1264;23309;-48
2024/02/15 06:27:03;;;;;;;;;;;;;;;6.32;100.00;100559.16;109042;1272;22617;-55
2024/02/15 06:47:01;;;;;;;;;;;;;;;6.33;100.00;100578.94;109606;1272;219732;-47
2024/02/15 06:50:14;;;;;;;;;;;;;;;6.32;100.00;100582.73;109083;1272;22566;-55
2024/02/15 06:53:06;;;;;;;;;;;;;;;6.34;100.00;100585.73;109838;1272;22611;-54
2024/02/15 06:55:40;;;;;;;;;;;;;;;6.34;100.00;100586.08;109899;1276;22514;-47
2024/02/15 06:58:09;;;;;;;;;;;;;;;6.33;100.00;100587.60;109971;1260;22539;-47
2024/02/15 07:00:40;;;;;;;;;;;;;;;6.33;100.00;100587.95;109985;1272;22445;-47
2024/02/15 07:03:08;;;;;;;;;;;;;;;6.33;100.00;100587.27;109794;1272;22494;-55
2024/02/15 07:05:37;;;;;;;;;;;;;;;6.31;100.00;100589.46;109247;1273;23071;-46
2024/02/15 07:08:06;;;;;;;;;;;;;;;6.29;100.00;100590.30;109279;1262;22514;-55
2024/02/15 07:10:33;;;;;;;;;;;;;;;6.31;100.00;100590.32;108857;1258;22870;-53
2024/02/15 07:13:01;;;;;;;;;;;;;;;6.33;100.00;100592.11;110053;1272;22835;-55
2024/02/15 07:15:31;;;;;;;;;;;;;;;6.33;100.00;100595.07;108641;1273;22515;-55
2024/02/15 07:18:01;;;;;;;;;;;;;;;6.32;100.00;100589.64;109316;1270;22516;-46
2024/02/15 07:20:29;;;;;;;;;;;;;;;6.30;100.00;100595.33;108917;1270;23846;-55
2024/02/15 07:22:58;;;;;;;;;;;;;;;6.26;100.00;100597.33;109484;1274;23353;-55
2024/02/15 07:25:25;;;;;;;;;;;;;;;6.26;100.00;100597.34;109427;1272;22590;-55
2024/02/15 07:27:54;;;;;;;;;;;;;;;6.26;100.00;100599.55;109668;1261;23182;-47
2024/02/15 07:30:22;;;;;;;;;;;;;;;6.25;100.00;100601.78;109841;1270;22454;-49
2024/02/15 07:32:53;;;;;;;;;;;;;;;6.24;100.00;100604.20;109792;1273;22430;-47
2024/02/15 07:35:24;;;;;;;;;;;;;;;6.24;100.00;100604.20;109869;1273;23063;-47
2024/02/15 07:37:55;;;;;;;;;;;;;;;6.22;100.00;100603.13;109740;1277;22455;-48
2024/02/15 07:40:22;;;;;;;;;;;;;;;6.22;100.00;100605.38;109716;1277;22542;-47
2024/02/15 07:42:51;;;;;;;;;;;;;;;6.22;100.00;100606.75;109804;1272;23027;-48
2024/02/15 07:45:19;;;;;;;;;;;;;;;6.20;100.00;100609.14;109811;1272;22893;-57
2024/02/15 07:47:48;;;;;;;;;;;;;;;6.19;100.00;100608.25;109814;1272;22590;-52
2024/02/15 07:50:19;;;;;;;;;;;;;;;6.18;100.00;100607.88;109340;1274;22562;-50
2024/02/15 07:52:48;;;;;;;;;;;;;;;6.17;100.00;100611.48;109696;1272;22461;-46
2024/02/15 07:55:16;;;;;;;;;;;;;;;6.17;100.00;100618.23;109555;1262;23021;-47
2024/02/15 07:57:43;;;;;;;;;;;;;;;6.18;100.00;100617.39;109857;1272;22455;-45
2024/02/15 08:00:11;;;;;;;;;;;;;;;6.18;100.00;100616.36;109797;1273;23132;-47
2024/02/15 08:02:42;;;;;;;;;;;;;;;6.16;100.00;100615.30;109949;1273;22445;-55
2024/02/15 08:05:12;;;;;;;;;;;;;;;6.16;100.00;100614.23;109826;1270;22522;-47
2024/02/15 08:07:44;;;;;;;;;;;;;;;6.16;100.00;100613.02;109966;1262;23199;-47
2024/02/15 08:10:14;;;;;;;;;;;;;;;6.16;100.00;100613.89;109858;1264;22491;-56
2024/02/15 08:12:42;;;;;;;;;;;;;;;6.14;100.00;100615.25;109197;1276;22967;-46
2024/02/15 08:15:13;;;;;;;;;;;;;;;6.14;100.00;100620.61;109637;1272;23370;-48
2024/02/15 08:17:46;;;;;;;;;;;;;;;6.12;100.00;100613.80;109707;1268;22501;-47
2024/02/15 08:20:14;;;;;;;;;;;;;;;6.08;100.00;100615.63;109908;1273;23241;-47
2024/02/15 08:22:43;;;;;;;;;;;;;;;6.06;100.00;100620.08;109564;1270;22597;-47
2024/02/15 08:25:11;;;;;;;;;;;;;;;6.05;100.00;100625.08;108921;1277;22543;-47
2024/02/15 08:27:44;;;;;;;;;;;;;;;6.05;100.00;100629.77;109576;1272;22598;-47
2024/02/15 08:30:15;;;;;;;;;;;;;;;6.07;100.00;100624.41;109405;1278;22496;-49
2024/02/15 08:32:47;;;;;;;;;;;;;;;6.07;100.00;100623.04;109555;1272;22485;-48
2024/02/15 08:35:15;;;;;;;;;;;;;;;6.05;100.00;100625.08;109116;1277;23075;-47
2024/02/15 08:37:47;;;;;;;;;;;;;;;6.05;100.00;100622.83;109653;1272;22625;-47
2024/02/15 08:40:15;;;;;;;;;;;;;;;6.05;100.00;100621.96;109772;1272;22562;-47
2024/02/15 08:42:43;;;;;;;;;;;;;;;6.05;100.00;100617.80;109759;1272;23337;-48
2024/02/15 08:45:12;;;;;;;;;;;;;;;6.05;100.00;100619.89;109311;1269;23378;-57
2024/02/15 08:47:40;;;;;;;;;;;;;;;6.05;100.00;100624.22;108550;1273;22512;-46
2024/02/15 08:50:09;;;;;;;;;;;;;;;6.07;100.00;100626.66;108931;1275;22480;-46
2024/02/15 08:52:38;;;;;;;;;;;;;;;6.07;100.00;100630.48;108287;1272;23491;-48
2024/02/15 08:55:10;;;;;;;;;;;;;;;6.08;100.00;100635.87;108152;1270;22511;-46
2024/02/15 08:57:44;;;;;;;;;;;;;;;6.07;100.00;100643.64;108917;1273;23321;-57
2024/02/15 09:00:18;;;;;;;;;;;;;;;6.07;100.00;100643.46;109521;1272;22447;-58
2024/02/15 09:03:18;;;;;;;;;;;;;;;6.07;100.00;100644.34;109570;1272;22453;-56
2024/02/15 09:11:11;;;;;;;;;;;;;;;6.05;100.00;100647.06;109897;1277;22861;-57
2024/02/15 09:41:58;;;;;;;;;;;;;;;5.60;100.00;100644.52;109404;1272;22795;-48
2024/02/15 09:45:45;;;;;;;;;;;;;;;5.62;100.00;100645.61;108526;1278;23280;-57
2024/02/15 10:01:09;;;;;;;;;;;;;;;5.68;100.00;100652.18;109519;1271;22503;-57
2024/02/15 10:04:37;;;;;;;;;;;;;;;5.73;100.00;100649.55;109157;1271;22521;-46
2024/02/15 10:07:47;;;;;;;;;;;;;;;5.75;100.00;100648.73;109979;1270;22470;-57
2024/02/15 10:17:37;;;;;;;;;;;;;;;5.57;100.00;100644.80;109872;1276;24047;-48
2024/02/15 10:21:06;;;;;;;;;;;;;;;5.47;100.00;100646.98;109555;1278;22507;-56
2024/02/15 10:23:46;;;;;;;;;;;;;;;5.43;100.00;100647.55;109597;1270;22508;-48
2024/02/15 10:26:28;;;;;;;;;;;;;;;5.44;100.00;100652.75;109441;1272;22514;-48
2024/02/15 10:29:10;;;;;;;;;;;;;;;5.47;100.00;100653.21;109789;1272;22493;-47
2024/02/15 10:31:38;;;;;;;;;;;;;;;5.51;100.00;100658.85;108985;1272;23036;-46
2024/02/15 10:34:07;;;;;;;;;;;;;;;5.54;100.00;100659.61;108883;1278;22484;-55
2024/02/15 10:36:35;;;;;;;;;;;;;;;5.58;100.00;100660.06;109657;1268;22697;-46
2024/02/15 10:39:19;;;;;;;;;;;;;;;5.62;100.00;100658.60;109287;1272;22516;-59
2024/02/15 10:41:51;;;;;;;;;;;;;;;5.66;100.00;100660.42;109771;1273;22487;-46
2024/02/15 10:44:19;;;;;;;;;;;;;;;5.68;100.00;100656.14;109912;1269;23644;-56
2024/02/15 10:46:53;;;;;;;;;;;;;;;5.67;100.00;100658.71;109979;1270;22448;-47
2024/02/15 10:49:25;;;;;;;;;;;;;;;5.65;100.00;100651.23;109865;1272;24198;-47
2024/02/15 10:51:56;;;;;;;;;;;;;;;5.61;100.00;100639.37;109444;1271;22583;-57
2024/02/15 10:54:31;;;;;;;;;;;;;;;5.56;100.00;100633.02;110028;1272;22572;-55
2024/02/15 10:57:03;;;;;;;;;;;;;;;5.53;100.00;100638.30;109612;1276;22496;-47
2024/02/15 10:59:42;;;;;;;;;;;;;;;5.51;100.00;100647.08;109873;1272;22437;-48
2024/02/15 11:02:32;;;;;;;;;;;;;;;5.52;100.00;100649.17;109316;1276;23583;-57
2024/02/15 11:05:03;;;;;;;;;;;;;;;5.49;100.00;100649.59;109544;1275;22593;-56
2024/02/15 11:07:33;;;;;;;;;;;;;;;5.47;100.00;100650.94;108914;1264;22518;-56
2024/02/15 11:10:07;;;;;;;;;;;;;;;5.49;100.00;100646.30;109082;1269;23370;-48
2024/02/15 11:12:35;;;;;;;;;;;;;;;5.49;100.00;100647.36;109102;1275;22504;-57
2024/02/15 11:15:03;;;;;;;;;;;;;;;5.49;100.00;100650.82;109769;1272;22449;-47
2024/02/15 11:17:44;;;;;;;;;;;;;;;5.49;100.00;100652.73;109492;1276;22539;-47
2024/02/15 11:20:32;;;;;;;;;;;;;;;5.49;100.00;100653.40;109810;1272;22576;-49
2024/02/15 11:23:01;;;;;;;;;;;;;;;5.47;100.00;100651.47;109826;1272;22520;-47
2024/02/15 11:25:32;;;;;;;;;;;;;;;5.47;100.00;100650.60;109768;1272;22486;-56
2024/02/15 11:28:20;;;;;;;;;;;;;;;5.47;100.00;100649.39;109682;1260;23112;-57
2024/02/15 11:30:48;;;;;;;;;;;;;;;5.47;100.00;100645.23;109189;1273;22558;-55
2024/02/15 11:33:32;;;;;;;;;;;;;;;5.44;100.00;100647.58;109942;1274;22525;-54
2024/02/15 11:36:06;;;;;;;;;;;;;;;5.41;100.00;100645.27;109619;1276;24145;-53
2024/02/15 11:38:34;;;;;;;;;;;;;;;5.40;100.00;100642.44;109923;1278;23226;-52
2024/02/15 11:41:03;;;;;;;;;;;;;;;5.37;100.00;100650.49;109164;1273;23325;-46
2024/02/15 11:43:58;;;;;;;;;;;;;;;5.32;100.00;100653.67;109781;1259;22529;-46
2024/02/15 11:46:44;;;;;;;;;;;;;;;5.26;100.00;100659.91;109595;1273;22496;-47
2024/02/15 11:49:17;;;;;;;;;;;;;;;5.21;100.00;100659.41;109502;1269;23470;-46
2024/02/15 11:51:47;;;;;;;;;;;;;;;5.18;100.00;100660.20;109913;1270;22450;-47
2024/02/15 11:54:25;;;;;;;;;;;;;;;5.17;100.00;100659.33;109827;1271;23698;-49
2024/02/15 11:57:07;;;;;;;;;;;;;;;5.16;100.00;100657.38;109779;1275;22427;-47
2024/02/15 11:59:42;;;;;;;;;;;;;;;5.18;100.00;100665.58;109798;1276;23125;-55
2024/02/15 12:18:54;;;;;;;;;;;;;;;5.31;100.00;100673.01;109586;1272;22493;-47
2024/02/15 12:21:23;;;;;;;;;;;;;;;5.33;100.00;100676.69;109841;1278;22453;-54
2024/02/15 12:23:52;;;;;;;;;;;;;;;5.32;100.00;100672.86;109852;1278;23216;-54
2024/02/15 12:26:20;;;;;;;;;;;;;;;5.33;100.00;100669.08;109894;1272;22843;-54
2024/02/15 12:28:54;;;;;;;;;;;;;;;5.33;100.00;100671.14;109443;1274;22585;-54
2024/02/15 12:31:22;;;;;;;;;;;;;;;5.31;100.00;100669.55;109896;1276;22457;-53
2024/02/15 12:34:06;;;;;;;;;;;;;;;5.28;100.00;100671.72;109904;1276;22634;-47
2024/02/15 12:36:37;;;;;;;;;;;;;;;5.25;100.00;100673.02;109834;1277;23311;-48
2024/02/15 12:39:10;;;;;;;;;;;;;;;5.22;100.00;100676.94;109908;1276;23608;-54
2024/02/15 12:41:40;;;;;;;;;;;;;;;5.21;100.00;100678.60;109925;1274;22426;-53
2024/02/15 12:44:10;;;;;;;;;;;;;;;5.21;100.00;100679.81;109343;1271;22504;-45
2024/02/15 12:46:38;;;;;;;;;;;;;;;5.24;100.00;100682.33;110048;1278;22431;-47
2024/02/15 12:49:06;;;;;;;;;;;;;;;5.26;100.00;100684.98;109969;1270;22418;-47
2024/02/15 12:51:34;;;;;;;;;;;;;;;5.28;100.00;100683.13;109932;1278;22447;-55
2024/02/15 12:54:08;;;;;;;;;;;;;;;5.29;100.00;100686.30;110049;1278;22461;-54
2024/02/15 12:56:36;;;;;;;;;;;;;;;5.29;100.00;100691.48;110080;1270;22427;-53
2024/02/15 12:59:06;;;;;;;;;;;;;;;5.29;100.00;100691.11;109787;1278;22882;-54
2024/02/15 13:01:34;;;;;;;;;;;;;;;5.27;100.00;100688.29;109416;1278;23367;-53
2024/02/15 13:04:01;;;;;;;;;;;;;;;5.24;100.00;100692.37;109777;1272;22467;-54
2024/02/15 13:06:29;;;;;;;;;;;;;;;5.24;100.00;100689.24;109901;1270;22423;-54
2024/02/15 13:08:57;;;;;;;;;;;;;;;5.22;100.00;100687.98;109361;1278;24923;-54
2024/02/15 13:11:28;;;;;;;;;;;;;;;5.21;100.00;100684.48;109674;1278;22579;-46
2024/02/15 13:13:56;;;;;;;;;;;;;;;5.18;100.00;100686.15;109885;1276;22488;-48
2024/02/15 13:16:24;;;;;;;;;;;;;;;5.16;100.00;100686.98;109992;1278;22421;-48
2024/02/15 13:18:52;;;;;;;;;;;;;;;5.16;100.00;100689.73;110058;1277;22506;-50
2024/02/15 13:21:20;;;;;;;;;;;;;;;5.17;100.00;100692.52;109938;1277;22443;-48
2024/02/15 13:23:48;;;;;;;;;;;;;;;5.19;100.00;100696.52;109919;1272;22529;-47
2024/02/15 13:26:15;;;;;;;;;;;;;;;5.20;100.00;100695.02;109924;1276;22444;-48
2024/02/15 13:28:44;;;;;;;;;;;;;;;5.23;100.00;100695.11;110053;1277;22471;-50
2024/02/15 13:31:13;;;;;;;;;;;;;;;5.26;100.00;100697.95;109885;1278;22562;-47
2024/02/15 13:33:41;;;;;;;;;;;;;;;5.28;100.00;100699.39;110006;1278;23212;-49
2024/02/15 13:36:10;;;;;;;;;;;;;;;5.29;100.00;100700.83;110214;1277;22423;-50
2024/02/15 13:38:38;;;;;;;;;;;;;;;5.28;100.00;100702.67;110058;1271;22452;-61
2024/02/15 13:41:06;;;;;;;;;;;;;;;5.27;100.00;100701.95;110042;1278;23176;-58
2024/02/15 13:43:34;;;;;;;;;;;;;;;5.28;100.00;100701.48;109741;1271;22536;-48
2024/02/15 13:46:01;;;;;;;;;;;;;;;5.28;100.00;100705.98;110081;1278;22515;-49
2024/02/15 13:48:29;;;;;;;;;;;;;;;5.26;100.00;100708.67;109992;1277;23177;-49
2024/02/15 13:50:58;;;;;;;;;;;;;;;5.26;100.00;100705.21;110033;1278;23051;-59
2024/02/15 13:53:28;;;;;;;;;;;;;;;5.26;100.00;100704.68;110248;1277;22406;-47
2024/02/15 13:55:55;;;;;;;;;;;;;;;5.26;100.00;100710.90;110135;1277;23266;-47
2024/02/15 13:58:23;;;;;;;;;;;;;;;5.24;100.00;100708.45;110103;1278;22450;-48
2024/02/15 14:00:52;;;;;;;;;;;;;;;5.22;100.00;100709.42;109979;1272;22424;-58
2024/02/15 14:03:21;;;;;;;;;;;;;;;5.20;100.00;100713.69;110108;1278;22438;-59
2024/02/15 14:05:50;;;;;;;;;;;;;;;5.18;100.00;100715.89;109979;1277;22747;-59
2024/02/15 14:08:20;;;;;;;;;;;;;;;5.14;100.00;100708.86;110131;1272;23019;-48
2024/02/15 14:10:48;;;;;;;;;;;;;;;5.07;100.00;100711.08;109988;1277;22501;-57
2024/02/15 14:13:15;;;;;;;;;;;;;;;5.03;100.00;100712.01;110011;1278;22471;-49
2024/02/15 14:15:43;;;;;;;;;;;;;;;5.01;100.00;100716.61;110191;1278;22454;-49
